sensor_id;sensor_type;location;lat;lon;timestamp;P1;durP1;ratioP1;P2;durP2;ratioP2
53036;SDS011;38924;52.134;4.666;2023-07-31T00:02:03;48.53;;;17.00;;
53036;SDS011;38924;52.134;4.666;2023-07-31T00:04:29;46.95;;;17.27;;
53036;SDS011;38924;52.134;4.666;2023-07-31T00:06:55;51.42;;;19.23;;
53036;SDS011;38924;52.134;4.666;2023-07-31T00:09:23;51.33;;;16.30;;
53036;SDS011;38924;52.134;4.666;2023-07-31T00:11:49;44.08;;;17.10;;
53036;SDS011;38924;52.134;4.666;2023-07-31T00:14:14;43.70;;;16.08;;
53036;SDS011;38924;52.134;4.666;2023-07-31T00:16:40;36.95;;;14.77;;
53036;SDS011;38924;52.134;4.666;2023-07-31T00:19:06;32.35;;;13.27;;
53036;SDS011;38924;52.134;4.666;2023-07-31T00:21:34;30.95;;;13.32;;
53036;SDS011;38924;52.134;4.666;2023-07-31T00:24:00;30.83;;;13.27;;
53036;SDS011;38924;52.134;4.666;2023-07-31T00:26:26;30.35;;;12.45;;
53036;SDS011;38924;52.134;4.666;2023-07-31T00:28:52;38.10;;;13.23;;
53036;SDS011;38924;52.134;4.666;2023-07-31T00:31:17;35.47;;;13.55;;
53036;SDS011;38924;52.134;4.666;2023-07-31T00:33:43;22.73;;;9.93;;
53036;SDS011;38924;52.134;4.666;2023-07-31T00:36:08;23.67;;;11.05;;
53036;SDS011;38924;52.134;4.666;2023-07-31T00:38:34;24.65;;;10.73;;
53036;SDS011;38924;52.134;4.666;2023-07-31T00:41:00;28.33;;;11.35;;
53036;SDS011;38924;52.134;4.666;2023-07-31T00:43:25;26.92;;;11.40;;
53036;SDS011;38924;52.134;4.666;2023-07-31T00:45:51;28.30;;;10.52;;
53036;SDS011;38924;52.134;4.666;2023-07-31T00:48:26;28.88;;;11.38;;
53036;SDS011;38924;52.134;4.666;2023-07-31T00:50:52;30.65;;;11.30;;
53036;SDS011;38924;52.134;4.666;2023-07-31T00:53:17;40.35;;;14.07;;
53036;SDS011;38924;52.134;4.666;2023-07-31T00:55:43;45.88;;;14.18;;
53036;SDS011;38924;52.134;4.666;2023-07-31T00:58:10;49.95;;;14.57;;
53036;SDS011;38924;52.134;4.666;2023-07-31T01:00:38;45.72;;;14.95;;
53036;SDS011;38924;52.134;4.666;2023-07-31T01:03:06;61.42;;;16.63;;
53036;SDS011;38924;52.134;4.666;2023-07-31T01:11:17;53.58;;;14.27;;
53036;SDS011;38924;52.134;4.666;2023-07-31T01:13:45;39.85;;;14.55;;
53036;SDS011;38924;52.134;4.666;2023-07-31T01:16:11;48.78;;;15.48;;
53036;SDS011;38924;52.134;4.666;2023-07-31T01:18:37;51.28;;;16.23;;
53036;SDS011;38924;52.134;4.666;2023-07-31T01:21:13;56.50;;;19.33;;
53036;SDS011;38924;52.134;4.666;2023-07-31T01:26:12;44.45;;;15.43;;
53036;SDS011;38924;52.134;4.666;2023-07-31T01:31:10;46.67;;;15.57;;
53036;SDS011;38924;52.134;4.666;2023-07-31T01:33:37;52.70;;;15.57;;
53036;SDS011;38924;52.134;4.666;2023-07-31T01:36:03;41.53;;;15.15;;
53036;SDS011;38924;52.134;4.666;2023-07-31T01:38:30;40.08;;;16.73;;
53036;SDS011;38924;52.134;4.666;2023-07-31T01:40:56;53.58;;;18.08;;
53036;SDS011;38924;52.134;4.666;2023-07-31T01:43:25;44.10;;;16.85;;
53036;SDS011;38924;52.134;4.666;2023-07-31T01:45:52;46.95;;;16.73;;
53036;SDS011;38924;52.134;4.666;2023-07-31T01:48:20;56.00;;;18.08;;
53036;SDS011;38924;52.134;4.666;2023-07-31T01:50:50;48.03;;;16.05;;
53036;SDS011;38924;52.134;4.666;2023-07-31T01:53:15;57.25;;;16.90;;
53036;SDS011;38924;52.134;4.666;2023-07-31T01:55:41;53.78;;;16.13;;
53036;SDS011;38924;52.134;4.666;2023-07-31T01:58:07;46.67;;;14.82;;
53036;SDS011;38924;52.134;4.666;2023-07-31T02:00:33;47.47;;;16.67;;
53036;SDS011;38924;52.134;4.666;2023-07-31T02:02:59;49.92;;;14.68;;
53036;SDS011;38924;52.134;4.666;2023-07-31T02:05:25;47.88;;;13.45;;
53036;SDS011;38924;52.134;4.666;2023-07-31T02:07:51;45.10;;;13.13;;
53036;SDS011;38924;52.134;4.666;2023-07-31T02:10:16;44.47;;;13.82;;
53036;SDS011;38924;52.134;4.666;2023-07-31T02:12:42;39.15;;;12.93;;
53036;SDS011;38924;52.134;4.666;2023-07-31T02:15:08;37.55;;;13.27;;
53036;SDS011;38924;52.134;4.666;2023-07-31T02:17:35;35.30;;;11.93;;
53036;SDS011;38924;52.134;4.666;2023-07-31T02:20:00;33.38;;;11.68;;
53036;SDS011;38924;52.134;4.666;2023-07-31T02:22:26;39.20;;;11.75;;
53036;SDS011;38924;52.134;4.666;2023-07-31T02:24:52;42.78;;;12.50;;
53036;SDS011;38924;52.134;4.666;2023-07-31T02:27:17;44.80;;;12.43;;
53036;SDS011;38924;52.134;4.666;2023-07-31T02:29:44;53.22;;;13.82;;
53036;SDS011;38924;52.134;4.666;2023-07-31T02:32:13;41.13;;;11.85;;
53036;SDS011;38924;52.134;4.666;2023-07-31T02:34:38;38.67;;;12.85;;
53036;SDS011;38924;52.134;4.666;2023-07-31T02:37:04;51.55;;;14.30;;
53036;SDS011;38924;52.134;4.666;2023-07-31T02:39:30;48.38;;;14.13;;
53036;SDS011;38924;52.134;4.666;2023-07-31T02:41:55;44.25;;;13.38;;
53036;SDS011;38924;52.134;4.666;2023-07-31T02:44:22;44.70;;;12.15;;
53036;SDS011;38924;52.134;4.666;2023-07-31T02:46:48;32.75;;;11.23;;
53036;SDS011;38924;52.134;4.666;2023-07-31T02:49:14;57.13;;;15.00;;
53036;SDS011;38924;52.134;4.666;2023-07-31T02:51:40;39.33;;;12.07;;
53036;SDS011;38924;52.134;4.666;2023-07-31T02:54:07;37.58;;;11.70;;
53036;SDS011;38924;52.134;4.666;2023-07-31T02:56:32;39.97;;;12.35;;
53036;SDS011;38924;52.134;4.666;2023-07-31T02:58:58;45.17;;;13.27;;
53036;SDS011;38924;52.134;4.666;2023-07-31T03:01:24;43.33;;;13.50;;
53036;SDS011;38924;52.134;4.666;2023-07-31T03:03:49;42.55;;;11.68;;
53036;SDS011;38924;52.134;4.666;2023-07-31T03:06:18;43.60;;;12.93;;
53036;SDS011;38924;52.134;4.666;2023-07-31T03:08:43;45.80;;;12.85;;
53036;SDS011;38924;52.134;4.666;2023-07-31T03:11:09;37.20;;;11.77;;
53036;SDS011;38924;52.134;4.666;2023-07-31T03:13:38;38.80;;;11.20;;
53036;SDS011;38924;52.134;4.666;2023-07-31T03:16:03;33.10;;;11.15;;
53036;SDS011;38924;52.134;4.666;2023-07-31T03:18:29;32.40;;;10.82;;
53036;SDS011;38924;52.134;4.666;2023-07-31T03:20:55;42.97;;;11.00;;
53036;SDS011;38924;52.134;4.666;2023-07-31T03:23:20;44.10;;;11.13;;
53036;SDS011;38924;52.134;4.666;2023-07-31T03:25:56;47.92;;;11.70;;
53036;SDS011;38924;52.134;4.666;2023-07-31T03:28:29;48.33;;;11.70;;
53036;SDS011;38924;52.134;4.666;2023-07-31T03:30:54;36.00;;;11.57;;
53036;SDS011;38924;52.134;4.666;2023-07-31T03:33:20;40.15;;;10.73;;
53036;SDS011;38924;52.134;4.666;2023-07-31T03:35:49;46.17;;;12.52;;
53036;SDS011;38924;52.134;4.666;2023-07-31T03:38:15;50.42;;;11.85;;
53036;SDS011;38924;52.134;4.666;2023-07-31T03:40:40;50.63;;;12.68;;
53036;SDS011;38924;52.134;4.666;2023-07-31T03:43:06;40.75;;;12.48;;
53036;SDS011;38924;52.134;4.666;2023-07-31T03:45:32;43.33;;;11.77;;
53036;SDS011;38924;52.134;4.666;2023-07-31T03:47:58;54.30;;;13.65;;
53036;SDS011;38924;52.134;4.666;2023-07-31T03:50:25;55.85;;;12.73;;
53036;SDS011;38924;52.134;4.666;2023-07-31T03:52:51;38.72;;;12.98;;
53036;SDS011;38924;52.134;4.666;2023-07-31T03:55:17;35.30;;;11.68;;
53036;SDS011;38924;52.134;4.666;2023-07-31T03:57:43;46.30;;;12.05;;
53036;SDS011;38924;52.134;4.666;2023-07-31T04:00:09;41.53;;;12.15;;
53036;SDS011;38924;52.134;4.666;2023-07-31T04:02:38;33.22;;;12.43;;
53036;SDS011;38924;52.134;4.666;2023-07-31T04:05:03;40.53;;;12.00;;
53036;SDS011;38924;52.134;4.666;2023-07-31T04:07:29;50.70;;;12.02;;
53036;SDS011;38924;52.134;4.666;2023-07-31T04:09:55;33.80;;;12.25;;
53036;SDS011;38924;52.134;4.666;2023-07-31T04:12:20;33.55;;;11.38;;
53036;SDS011;38924;52.134;4.666;2023-07-31T04:14:46;34.08;;;11.63;;
53036;SDS011;38924;52.134;4.666;2023-07-31T04:17:12;30.30;;;10.50;;
53036;SDS011;38924;52.134;4.666;2023-07-31T04:19:37;29.73;;;8.98;;
53036;SDS011;38924;52.134;4.666;2023-07-31T04:22:03;23.08;;;8.68;;
53036;SDS011;38924;52.134;4.666;2023-07-31T04:24:28;16.13;;;7.45;;
53036;SDS011;38924;52.134;4.666;2023-07-31T04:26:54;29.45;;;7.57;;
53036;SDS011;38924;52.134;4.666;2023-07-31T04:29:20;21.30;;;9.20;;
53036;SDS011;38924;52.134;4.666;2023-07-31T04:31:47;20.35;;;7.25;;
53036;SDS011;38924;52.134;4.666;2023-07-31T04:34:13;20.00;;;8.05;;
53036;SDS011;38924;52.134;4.666;2023-07-31T04:36:38;18.42;;;7.57;;
53036;SDS011;38924;52.134;4.666;2023-07-31T04:39:04;16.35;;;8.23;;
53036;SDS011;38924;52.134;4.666;2023-07-31T04:41:30;13.50;;;6.88;;
53036;SDS011;38924;52.134;4.666;2023-07-31T04:43:55;15.38;;;6.78;;
53036;SDS011;38924;52.134;4.666;2023-07-31T04:46:21;10.95;;;6.90;;
53036;SDS011;38924;52.134;4.666;2023-07-31T04:48:47;11.65;;;7.15;;
53036;SDS011;38924;52.134;4.666;2023-07-31T04:51:12;12.43;;;8.10;;
53036;SDS011;38924;52.134;4.666;2023-07-31T04:53:38;13.10;;;7.68;;
53036;SDS011;38924;52.134;4.666;2023-07-31T04:56:04;15.07;;;7.25;;
53036;SDS011;38924;52.134;4.666;2023-07-31T04:58:29;11.05;;;8.07;;
53036;SDS011;38924;52.134;4.666;2023-07-31T05:00:55;11.88;;;9.40;;
53036;SDS011;38924;52.134;4.666;2023-07-31T05:03:21;16.60;;;9.73;;
53036;SDS011;38924;52.134;4.666;2023-07-31T05:05:46;12.02;;;8.00;;
53036;SDS011;38924;52.134;4.666;2023-07-31T05:08:13;13.10;;;9.40;;
53036;SDS011;38924;52.134;4.666;2023-07-31T05:10:39;11.07;;;9.18;;
53036;SDS011;38924;52.134;4.666;2023-07-31T05:13:04;11.25;;;10.10;;
53036;SDS011;38924;52.134;4.666;2023-07-31T05:15:30;10.90;;;8.43;;
53036;SDS011;38924;52.134;4.666;2023-07-31T05:17:56;10.65;;;9.10;;
53036;SDS011;38924;52.134;4.666;2023-07-31T05:20:22;10.88;;;8.13;;
53036;SDS011;38924;52.134;4.666;2023-07-31T05:22:47;11.13;;;8.55;;
53036;SDS011;38924;52.134;4.666;2023-07-31T05:25:13;12.18;;;8.82;;
53036;SDS011;38924;52.134;4.666;2023-07-31T05:27:38;10.35;;;8.30;;
53036;SDS011;38924;52.134;4.666;2023-07-31T05:30:04;18.40;;;9.63;;
53036;SDS011;38924;52.134;4.666;2023-07-31T05:32:30;11.32;;;8.43;;
53036;SDS011;38924;52.134;4.666;2023-07-31T05:34:56;11.48;;;8.18;;
53036;SDS011;38924;52.134;4.666;2023-07-31T05:37:22;13.25;;;8.00;;
53036;SDS011;38924;52.134;4.666;2023-07-31T05:39:48;12.02;;;7.78;;
53036;SDS011;38924;52.134;4.666;2023-07-31T05:42:13;18.00;;;8.02;;
53036;SDS011;38924;52.134;4.666;2023-07-31T05:44:42;9.45;;;7.20;;
53036;SDS011;38924;52.134;4.666;2023-07-31T05:47:08;9.23;;;7.35;;
53036;SDS011;38924;52.134;4.666;2023-07-31T05:49:34;9.68;;;6.78;;
53036;SDS011;38924;52.134;4.666;2023-07-31T05:51:59;9.68;;;6.63;;
53036;SDS011;38924;52.134;4.666;2023-07-31T05:54:25;9.25;;;7.03;;
53036;SDS011;38924;52.134;4.666;2023-07-31T05:56:52;10.88;;;6.65;;
53036;SDS011;38924;52.134;4.666;2023-07-31T05:59:17;10.05;;;7.40;;
53036;SDS011;38924;52.134;4.666;2023-07-31T06:01:43;9.05;;;6.60;;
53036;SDS011;38924;52.134;4.666;2023-07-31T06:04:09;7.93;;;6.25;;
53036;SDS011;38924;52.134;4.666;2023-07-31T06:06:35;7.38;;;6.60;;
53036;SDS011;38924;52.134;4.666;2023-07-31T06:09:00;9.27;;;6.63;;
53036;SDS011;38924;52.134;4.666;2023-07-31T06:11:26;7.18;;;5.43;;
53036;SDS011;38924;52.134;4.666;2023-07-31T06:13:51;8.88;;;6.45;;
53036;SDS011;38924;52.134;4.666;2023-07-31T06:16:17;11.05;;;6.63;;
53036;SDS011;38924;52.134;4.666;2023-07-31T06:18:43;6.88;;;6.13;;
53036;SDS011;38924;52.134;4.666;2023-07-31T06:21:09;7.72;;;5.75;;
53036;SDS011;38924;52.134;4.666;2023-07-31T06:23:35;6.78;;;5.75;;
53036;SDS011;38924;52.134;4.666;2023-07-31T06:26:01;6.25;;;5.47;;
53036;SDS011;38924;52.134;4.666;2023-07-31T06:28:27;7.00;;;6.30;;
53036;SDS011;38924;52.134;4.666;2023-07-31T06:30:56;6.68;;;5.80;;
53036;SDS011;38924;52.134;4.666;2023-07-31T06:33:22;6.53;;;6.03;;
53036;SDS011;38924;52.134;4.666;2023-07-31T06:35:48;6.53;;;6.03;;
53036;SDS011;38924;52.134;4.666;2023-07-31T06:38:13;6.65;;;5.78;;
53036;SDS011;38924;52.134;4.666;2023-07-31T06:40:39;7.70;;;6.75;;
53036;SDS011;38924;52.134;4.666;2023-07-31T06:43:05;6.13;;;5.60;;
53036;SDS011;38924;52.134;4.666;2023-07-31T06:45:33;6.10;;;5.50;;
53036;SDS011;38924;52.134;4.666;2023-07-31T06:48:00;5.85;;;5.35;;
53036;SDS011;38924;52.134;4.666;2023-07-31T06:50:30;5.85;;;5.07;;
53036;SDS011;38924;52.134;4.666;2023-07-31T06:52:56;5.80;;;5.13;;
53036;SDS011;38924;52.134;4.666;2023-07-31T06:55:22;6.35;;;5.72;;
53036;SDS011;38924;52.134;4.666;2023-07-31T06:57:48;6.18;;;5.57;;
53036;SDS011;38924;52.134;4.666;2023-07-31T07:00:15;5.53;;;5.10;;
53036;SDS011;38924;52.134;4.666;2023-07-31T07:02:42;5.43;;;5.00;;
53036;SDS011;38924;52.134;4.666;2023-07-31T07:05:08;5.40;;;5.00;;
53036;SDS011;38924;52.134;4.666;2023-07-31T07:07:34;5.57;;;5.15;;
53036;SDS011;38924;52.134;4.666;2023-07-31T07:10:00;4.60;;;4.30;;
53036;SDS011;38924;52.134;4.666;2023-07-31T07:12:27;5.15;;;4.75;;
53036;SDS011;38924;52.134;4.666;2023-07-31T07:14:52;6.28;;;4.55;;
53036;SDS011;38924;52.134;4.666;2023-07-31T07:17:18;4.85;;;4.55;;
53036;SDS011;38924;52.134;4.666;2023-07-31T07:19:44;4.53;;;4.13;;
53036;SDS011;38924;52.134;4.666;2023-07-31T07:22:11;4.68;;;4.38;;
53036;SDS011;38924;52.134;4.666;2023-07-31T07:24:37;5.10;;;4.80;;
53036;SDS011;38924;52.134;4.666;2023-07-31T07:27:05;5.00;;;4.60;;
53036;SDS011;38924;52.134;4.666;2023-07-31T07:29:31;5.53;;;5.03;;
53036;SDS011;38924;52.134;4.666;2023-07-31T07:31:56;5.22;;;4.80;;
53036;SDS011;38924;52.134;4.666;2023-07-31T07:34:23;12.25;;;5.32;;
53036;SDS011;38924;52.134;4.666;2023-07-31T07:36:49;5.55;;;5.25;;
53036;SDS011;38924;52.134;4.666;2023-07-31T07:39:15;4.15;;;3.95;;
53036;SDS011;38924;52.134;4.666;2023-07-31T07:41:40;4.82;;;4.53;;
53036;SDS011;38924;52.134;4.666;2023-07-31T07:44:07;4.57;;;4.35;;
53036;SDS011;38924;52.134;4.666;2023-07-31T07:46:33;4.35;;;4.05;;
53036;SDS011;38924;52.134;4.666;2023-07-31T07:48:58;5.30;;;5.00;;
53036;SDS011;38924;52.134;4.666;2023-07-31T07:51:24;5.70;;;5.07;;
53036;SDS011;38924;52.134;4.666;2023-07-31T07:53:50;5.53;;;5.20;;
53036;SDS011;38924;52.134;4.666;2023-07-31T07:56:16;5.20;;;4.90;;
53036;SDS011;38924;52.134;4.666;2023-07-31T07:58:41;5.03;;;4.72;;
53036;SDS011;38924;52.134;4.666;2023-07-31T08:01:07;5.05;;;4.75;;
53036;SDS011;38924;52.134;4.666;2023-07-31T08:03:33;6.65;;;4.95;;
53036;SDS011;38924;52.134;4.666;2023-07-31T08:05:59;5.55;;;5.13;;
53036;SDS011;38924;52.134;4.666;2023-07-31T08:08:25;5.38;;;4.97;;
53036;SDS011;38924;52.134;4.666;2023-07-31T08:10:51;7.40;;;4.85;;
53036;SDS011;38924;52.134;4.666;2023-07-31T08:13:16;5.93;;;5.38;;
53036;SDS011;38924;52.134;4.666;2023-07-31T08:15:42;5.53;;;5.07;;
53036;SDS011;38924;52.134;4.666;2023-07-31T08:18:08;6.63;;;5.85;;
53036;SDS011;38924;52.134;4.666;2023-07-31T08:20:34;6.10;;;5.65;;
53036;SDS011;38924;52.134;4.666;2023-07-31T08:23:00;5.97;;;5.47;;
53036;SDS011;38924;52.134;4.666;2023-07-31T08:25:26;6.57;;;5.97;;
53036;SDS011;38924;52.134;4.666;2023-07-31T08:27:52;9.82;;;5.82;;
53036;SDS011;38924;52.134;4.666;2023-07-31T08:30:18;13.00;;;7.68;;
53036;SDS011;38924;52.134;4.666;2023-07-31T08:32:44;15.48;;;7.53;;
53036;SDS011;38924;52.134;4.666;2023-07-31T08:35:10;17.88;;;8.35;;
53036;SDS011;38924;52.134;4.666;2023-07-31T08:37:37;23.27;;;8.15;;
53036;SDS011;38924;52.134;4.666;2023-07-31T08:40:03;17.00;;;7.22;;
53036;SDS011;38924;52.134;4.666;2023-07-31T08:42:29;23.85;;;9.20;;
53036;SDS011;38924;52.134;4.666;2023-07-31T08:44:55;18.20;;;8.40;;
53036;SDS011;38924;52.134;4.666;2023-07-31T08:47:21;22.40;;;9.18;;
53036;SDS011;38924;52.134;4.666;2023-07-31T08:49:47;23.15;;;9.40;;
53036;SDS011;38924;52.134;4.666;2023-07-31T08:52:13;17.05;;;9.23;;
53036;SDS011;38924;52.134;4.666;2023-07-31T08:54:38;22.63;;;9.00;;
53036;SDS011;38924;52.134;4.666;2023-07-31T08:57:05;24.40;;;9.52;;
53036;SDS011;38924;52.134;4.666;2023-07-31T08:59:31;20.88;;;8.45;;
53036;SDS011;38924;52.134;4.666;2023-07-31T09:02:03;22.35;;;7.75;;
53036;SDS011;38924;52.134;4.666;2023-07-31T09:04:32;23.17;;;9.07;;
53036;SDS011;38924;52.134;4.666;2023-07-31T09:06:59;25.08;;;8.57;;
53036;SDS011;38924;52.134;4.666;2023-07-31T09:09:25;23.50;;;7.72;;
53036;SDS011;38924;52.134;4.666;2023-07-31T09:11:51;21.48;;;7.88;;
53036;SDS011;38924;52.134;4.666;2023-07-31T09:14:17;22.05;;;9.13;;
53036;SDS011;38924;52.134;4.666;2023-07-31T09:16:51;26.42;;;9.38;;
53036;SDS011;38924;52.134;4.666;2023-07-31T09:19:24;25.35;;;9.18;;
53036;SDS011;38924;52.134;4.666;2023-07-31T09:21:50;25.17;;;9.38;;
53036;SDS011;38924;52.134;4.666;2023-07-31T09:24:28;27.63;;;9.43;;
53036;SDS011;38924;52.134;4.666;2023-07-31T09:26:54;23.52;;;8.80;;
53036;SDS011;38924;52.134;4.666;2023-07-31T09:29:24;28.40;;;9.38;;
53036;SDS011;38924;52.134;4.666;2023-07-31T09:31:50;29.75;;;8.73;;
53036;SDS011;38924;52.134;4.666;2023-07-31T09:34:16;23.33;;;8.73;;
53036;SDS011;38924;52.134;4.666;2023-07-31T09:36:42;28.35;;;8.55;;
53036;SDS011;38924;52.134;4.666;2023-07-31T09:39:11;25.38;;;9.48;;
53036;SDS011;38924;52.134;4.666;2023-07-31T09:41:38;17.98;;;7.25;;
53036;SDS011;38924;52.134;4.666;2023-07-31T09:44:04;28.42;;;8.88;;
53036;SDS011;38924;52.134;4.666;2023-07-31T09:46:30;22.90;;;9.35;;
53036;SDS011;38924;52.134;4.666;2023-07-31T09:49:11;21.02;;;8.82;;
53036;SDS011;38924;52.134;4.666;2023-07-31T09:51:37;25.17;;;9.13;;
53036;SDS011;38924;52.134;4.666;2023-07-31T09:54:12;19.48;;;8.98;;
53036;SDS011;38924;52.134;4.666;2023-07-31T09:56:42;21.67;;;9.02;;
53036;SDS011;38924;52.134;4.666;2023-07-31T09:59:10;23.02;;;10.40;;
53036;SDS011;38924;52.134;4.666;2023-07-31T10:01:36;24.92;;;7.72;;
53036;SDS011;38924;52.134;4.666;2023-07-31T10:04:02;18.95;;;9.35;;
53036;SDS011;38924;52.134;4.666;2023-07-31T10:06:29;26.38;;;8.63;;
53036;SDS011;38924;52.134;4.666;2023-07-31T10:08:55;18.42;;;7.95;;
53036;SDS011;38924;52.134;4.666;2023-07-31T10:11:21;20.00;;;8.57;;
53036;SDS011;38924;52.134;4.666;2023-07-31T10:13:47;23.83;;;7.65;;
53036;SDS011;38924;52.134;4.666;2023-07-31T10:16:16;25.08;;;7.93;;
53036;SDS011;38924;52.134;4.666;2023-07-31T10:18:43;22.58;;;9.85;;
53036;SDS011;38924;52.134;4.666;2023-07-31T10:21:11;19.83;;;8.80;;
53036;SDS011;38924;52.134;4.666;2023-07-31T10:23:36;21.52;;;9.70;;
53036;SDS011;38924;52.134;4.666;2023-07-31T10:26:04;23.63;;;9.23;;
53036;SDS011;38924;52.134;4.666;2023-07-31T10:28:34;22.35;;;9.57;;
53036;SDS011;38924;52.134;4.666;2023-07-31T10:31:01;21.63;;;10.05;;
53036;SDS011;38924;52.134;4.666;2023-07-31T10:33:26;19.27;;;9.52;;
53036;SDS011;38924;52.134;4.666;2023-07-31T10:36:11;20.58;;;10.45;;
53036;SDS011;38924;52.134;4.666;2023-07-31T10:38:37;24.20;;;10.50;;
53036;SDS011;38924;52.134;4.666;2023-07-31T10:41:09;20.42;;;10.70;;
53036;SDS011;38924;52.134;4.666;2023-07-31T10:43:36;25.25;;;9.88;;
53036;SDS011;38924;52.134;4.666;2023-07-31T10:46:06;31.38;;;10.70;;
53036;SDS011;38924;52.134;4.666;2023-07-31T10:48:35;26.83;;;9.73;;
53036;SDS011;38924;52.134;4.666;2023-07-31T10:51:10;26.52;;;9.85;;
53036;SDS011;38924;52.134;4.666;2023-07-31T10:53:36;25.33;;;7.97;;
53036;SDS011;38924;52.134;4.666;2023-07-31T10:56:03;22.90;;;8.35;;
53036;SDS011;38924;52.134;4.666;2023-07-31T10:58:31;22.23;;;7.82;;
53036;SDS011;38924;52.134;4.666;2023-07-31T11:00:58;21.92;;;7.80;;
53036;SDS011;38924;52.134;4.666;2023-07-31T11:03:26;20.02;;;8.95;;
53036;SDS011;38924;52.134;4.666;2023-07-31T11:08:24;19.42;;;8.48;;
53036;SDS011;38924;52.134;4.666;2023-07-31T11:11:04;17.38;;;7.05;;
53036;SDS011;38924;52.134;4.666;2023-07-31T11:13:31;17.48;;;6.55;;
53036;SDS011;38924;52.134;4.666;2023-07-31T11:15:57;15.38;;;6.82;;
53036;SDS011;38924;52.134;4.666;2023-07-31T11:18:23;19.42;;;8.23;;
53036;SDS011;38924;52.134;4.666;2023-07-31T11:20:48;15.93;;;7.15;;
53036;SDS011;38924;52.134;4.666;2023-07-31T11:23:15;17.45;;;7.78;;
53036;SDS011;38924;52.134;4.666;2023-07-31T11:25:41;20.40;;;8.30;;
53036;SDS011;38924;52.134;4.666;2023-07-31T11:28:11;23.95;;;8.98;;
53036;SDS011;38924;52.134;4.666;2023-07-31T11:30:37;20.92;;;7.72;;
53036;SDS011;38924;52.134;4.666;2023-07-31T11:33:04;15.55;;;6.50;;
53036;SDS011;38924;52.134;4.666;2023-07-31T11:35:34;21.13;;;7.32;;
53036;SDS011;38924;52.134;4.666;2023-07-31T11:38:00;23.38;;;7.53;;
53036;SDS011;38924;52.134;4.666;2023-07-31T11:40:29;16.25;;;8.00;;
53036;SDS011;38924;52.134;4.666;2023-07-31T11:42:58;20.33;;;8.27;;
53036;SDS011;38924;52.134;4.666;2023-07-31T11:45:24;19.48;;;8.52;;
53036;SDS011;38924;52.134;4.666;2023-07-31T11:47:51;20.92;;;6.68;;
53036;SDS011;38924;52.134;4.666;2023-07-31T11:50:16;13.20;;;6.65;;
53036;SDS011;38924;52.134;4.666;2023-07-31T11:52:43;20.95;;;7.75;;
53036;SDS011;38924;52.134;4.666;2023-07-31T11:55:11;17.30;;;6.18;;
53036;SDS011;38924;52.134;4.666;2023-07-31T11:57:38;24.48;;;8.73;;
53036;SDS011;38924;52.134;4.666;2023-07-31T12:00:05;17.77;;;6.45;;
53036;SDS011;38924;52.134;4.666;2023-07-31T12:02:31;15.00;;;5.55;;
53036;SDS011;38924;52.134;4.666;2023-07-31T12:04:57;18.13;;;6.13;;
53036;SDS011;38924;52.134;4.666;2023-07-31T12:07:23;16.20;;;5.70;;
53036;SDS011;38924;52.134;4.666;2023-07-31T12:09:52;11.88;;;5.13;;
53036;SDS011;38924;52.134;4.666;2023-07-31T12:12:22;14.13;;;5.80;;
53036;SDS011;38924;52.134;4.666;2023-07-31T12:14:48;15.82;;;5.90;;
53036;SDS011;38924;52.134;4.666;2023-07-31T12:17:14;11.68;;;5.40;;
53036;SDS011;38924;52.134;4.666;2023-07-31T12:19:39;10.43;;;5.18;;
53036;SDS011;38924;52.134;4.666;2023-07-31T12:22:15;13.35;;;5.32;;
53036;SDS011;38924;52.134;4.666;2023-07-31T12:24:42;14.27;;;5.47;;
53036;SDS011;38924;52.134;4.666;2023-07-31T12:27:10;9.80;;;5.50;;
53036;SDS011;38924;52.134;4.666;2023-07-31T12:29:36;9.73;;;4.90;;
53036;SDS011;38924;52.134;4.666;2023-07-31T12:32:04;10.90;;;4.93;;
53036;SDS011;38924;52.134;4.666;2023-07-31T12:34:31;10.68;;;4.53;;
53036;SDS011;38924;52.134;4.666;2023-07-31T12:37:09;16.48;;;6.03;;
53036;SDS011;38924;52.134;4.666;2023-07-31T12:39:34;11.57;;;6.32;;
53036;SDS011;38924;52.134;4.666;2023-07-31T12:42:00;13.65;;;5.50;;
53036;SDS011;38924;52.134;4.666;2023-07-31T12:44:26;12.70;;;6.50;;
53036;SDS011;38924;52.134;4.666;2023-07-31T12:46:52;13.98;;;5.95;;
53036;SDS011;38924;52.134;4.666;2023-07-31T12:49:18;16.58;;;6.50;;
53036;SDS011;38924;52.134;4.666;2023-07-31T12:51:43;16.35;;;6.32;;
53036;SDS011;38924;52.134;4.666;2023-07-31T12:54:09;14.65;;;6.28;;
53036;SDS011;38924;52.134;4.666;2023-07-31T12:56:37;11.48;;;4.97;;
53036;SDS011;38924;52.134;4.666;2023-07-31T12:59:03;12.88;;;5.38;;
53036;SDS011;38924;52.134;4.666;2023-07-31T13:01:28;8.43;;;5.30;;
53036;SDS011;38924;52.134;4.666;2023-07-31T13:03:54;10.50;;;5.80;;
53036;SDS011;38924;52.134;4.666;2023-07-31T13:06:20;9.68;;;4.72;;
53036;SDS011;38924;52.134;4.666;2023-07-31T13:08:45;11.52;;;4.93;;
53036;SDS011;38924;52.134;4.666;2023-07-31T13:11:11;11.82;;;5.07;;
53036;SDS011;38924;52.134;4.666;2023-07-31T13:13:37;7.50;;;4.28;;
53036;SDS011;38924;52.134;4.666;2023-07-31T13:16:03;6.80;;;4.65;;
53036;SDS011;38924;52.134;4.666;2023-07-31T13:18:28;8.15;;;5.88;;
53036;SDS011;38924;52.134;4.666;2023-07-31T13:20:54;6.28;;;4.35;;
53036;SDS011;38924;52.134;4.666;2023-07-31T13:23:20;5.05;;;4.55;;
53036;SDS011;38924;52.134;4.666;2023-07-31T13:25:46;5.43;;;4.95;;
53036;SDS011;38924;52.134;4.666;2023-07-31T13:28:12;7.43;;;6.63;;
53036;SDS011;38924;52.134;4.666;2023-07-31T13:30:37;8.18;;;7.05;;
53036;SDS011;38924;52.134;4.666;2023-07-31T13:33:03;7.57;;;6.63;;
53036;SDS011;38924;52.134;4.666;2023-07-31T13:35:29;8.15;;;6.95;;
53036;SDS011;38924;52.134;4.666;2023-07-31T13:37:56;9.15;;;6.45;;
53036;SDS011;38924;52.134;4.666;2023-07-31T13:40:22;7.63;;;6.55;;
53036;SDS011;38924;52.134;4.666;2023-07-31T13:42:48;7.82;;;6.28;;
53036;SDS011;38924;52.134;4.666;2023-07-31T13:45:14;9.38;;;7.60;;
53036;SDS011;38924;52.134;4.666;2023-07-31T13:47:40;7.03;;;6.35;;
53036;SDS011;38924;52.134;4.666;2023-07-31T13:50:05;8.93;;;6.75;;
53036;SDS011;38924;52.134;4.666;2023-07-31T13:52:31;8.57;;;7.63;;
53036;SDS011;38924;52.134;4.666;2023-07-31T13:54:57;9.15;;;6.82;;
53036;SDS011;38924;52.134;4.666;2023-07-31T13:57:23;6.32;;;5.65;;
53036;SDS011;38924;52.134;4.666;2023-07-31T13:59:48;7.38;;;6.78;;
53036;SDS011;38924;52.134;4.666;2023-07-31T14:02:14;7.60;;;6.90;;
53036;SDS011;38924;52.134;4.666;2023-07-31T14:04:40;7.63;;;5.72;;
53036;SDS011;38924;52.134;4.666;2023-07-31T14:07:06;7.97;;;6.28;;
53036;SDS011;38924;52.134;4.666;2023-07-31T14:09:32;11.80;;;6.70;;
53036;SDS011;38924;52.134;4.666;2023-07-31T14:11:57;8.05;;;6.38;;
53036;SDS011;38924;52.134;4.666;2023-07-31T14:14:23;7.85;;;7.05;;
53036;SDS011;38924;52.134;4.666;2023-07-31T14:16:49;7.50;;;6.28;;
53036;SDS011;38924;52.134;4.666;2023-07-31T14:19:15;6.57;;;6.07;;
53036;SDS011;38924;52.134;4.666;2023-07-31T14:21:41;8.07;;;7.38;;
53036;SDS011;38924;52.134;4.666;2023-07-31T14:24:07;7.18;;;6.53;;
53036;SDS011;38924;52.134;4.666;2023-07-31T14:26:33;5.93;;;5.43;;
53036;SDS011;38924;52.134;4.666;2023-07-31T14:28:58;6.55;;;5.95;;
53036;SDS011;38924;52.134;4.666;2023-07-31T14:31:27;7.88;;;7.00;;
53036;SDS011;38924;52.134;4.666;2023-07-31T14:33:53;5.65;;;5.25;;
53036;SDS011;38924;52.134;4.666;2023-07-31T14:36:19;7.68;;;5.72;;
53036;SDS011;38924;52.134;4.666;2023-07-31T14:38:45;6.55;;;5.95;;
53036;SDS011;38924;52.134;4.666;2023-07-31T14:41:11;8.88;;;6.18;;
53036;SDS011;38924;52.134;4.666;2023-07-31T14:43:36;6.05;;;5.55;;